Time;durP1;ratioP1;P1;durP2;ratioP2;P2;SDS_P1;SDS_P2;PMS_P1;PMS_P2;Temp;Humidity;BMP_temperature;BMP_pressure;BME280_temperature;BME280_humidity;BME280_pressure;Samples;Min_cycle;Max_cycle;Signal;HPM_P1;HPM_P2
2023/01/29 00:00:38;;;;;;;9.10;4.63;;;;;;;-1.12;88.11;101876.66;5003888;28;20034;-78
2023/01/29 00:03:04;;;;;;;7.93;4.33;;;;;;;-1.19;88.52;101877.97;5002370;28;20061;-77
2023/01/29 00:05:30;;;;;;;5.50;2.67;;;;;;;-1.23;88.25;101873.41;5007730;28;20096;-78
2023/01/29 00:07:55;;;;;;;5.87;2.53;;;;;;;-1.29;88.70;101869.53;5005279;28;20447;-78
2023/01/29 00:10:21;;;;;;;4.50;2.03;;;;;;;-1.30;88.39;101872.94;5005322;28;20038;-77
2023/01/29 00:12:47;;;;;;;4.23;1.60;;;;;;;-1.34;88.97;101872.75;5002261;28;20038;-77
2023/01/29 00:15:12;;;;;;;4.17;1.70;;;;;;;-1.35;88.89;101865.75;5006266;28;20053;-77
2023/01/29 00:17:37;;;;;;;3.17;1.40;;;;;;;-1.41;88.90;101860.19;5010327;28;20065;-76
2023/01/29 00:20:03;;;;;;;5.37;1.63;;;;;;;-1.44;88.92;101857.41;5005091;28;20030;-77
2023/01/29 00:22:29;;;;;;;5.00;1.37;;;;;;;-1.48;88.47;101862.28;5004198;28;20042;-76
2023/01/29 00:24:54;;;;;;;4.40;1.40;;;;;;;-1.55;88.56;101855.81;5002722;28;20038;-77
2023/01/29 00:27:20;;;;;;;3.90;2.03;;;;;;;-1.60;88.16;101858.13;5003361;28;20044;-76
2023/01/29 00:30:07;;;;;;;4.13;1.43;;;;;;;-1.64;89.02;101850.06;5005026;28;20083;-76
2023/01/29 00:32:32;;;;;;;4.53;1.67;;;;;;;-1.69;89.07;101851.47;5001604;28;20096;-75
2023/01/29 00:34:57;;;;;;;2.27;1.20;;;;;;;-1.76;89.53;101847.56;5007614;28;20030;-76
2023/01/29 00:37:22;;;;;;;3.13;1.33;;;;;;;-1.79;89.26;101856.03;5008270;28;20034;-75
2023/01/29 00:39:48;;;;;;;4.37;1.73;;;;;;;-1.82;90.03;101855.84;5004117;28;20118;-75
2023/01/29 00:44:57;;;;;;;4.07;1.33;;;;;;;-1.93;90.38;101868.88;5002896;28;20070;-75
2023/01/29 00:47:32;;;;;;;4.60;1.57;;;;;;;-1.96;90.43;101872.16;5007228;28;20080;-77
2023/01/29 00:49:59;;;;;;;3.03;1.37;;;;;;;-1.96;90.63;101872.16;5003387;28;20500;-76
2023/01/29 00:52:26;;;;;;;2.80;1.40;;;;;;;-1.98;90.88;101858.22;5002830;28;20554;-76
2023/01/29 00:54:53;;;;;;;3.53;1.27;;;;;;;-2.02;90.86;101858.81;5018964;23;20054;-70
2023/01/29 00:57:18;;;;;;;5.43;1.53;;;;;;;-2.05;90.85;101859.50;5008834;28;20109;-70
2023/01/29 00:59:44;;;;;;;4.20;1.67;;;;;;;-2.02;90.58;101861.38;5008782;28;20113;-70
2023/01/29 01:04:55;;;;;;;3.77;1.50;;;;;;;-2.03;90.99;101854.44;5012804;28;20508;-70
2023/01/29 01:07:22;;;;;;;5.70;2.13;;;;;;;-2.06;90.40;101852.53;5003840;28;20105;-69
2023/01/29 01:12:31;;;;;;;5.03;2.10;;;;;;;-2.14;91.07;101848.56;5009471;28;20037;-69
2023/01/29 01:14:57;;;;;;;5.10;1.57;;;;;;;-2.18;90.96;101843.97;5010863;28;20034;-69
2023/01/29 01:17:22;;;;;;;5.07;1.60;;;;;;;-2.19;90.74;101838.72;5007926;28;20388;-69
2023/01/29 01:19:48;;;;;;;4.73;1.77;;;;;;;-2.25;91.37;101829.75;5009337;28;20497;-71
2023/01/29 01:22:13;;;;;;;5.70;2.57;;;;;;;-2.26;90.66;101834.81;5002070;28;20492;-69
2023/01/29 01:24:39;;;;;;;6.97;2.40;;;;;;;-2.29;90.88;101832.91;5001038;28;20038;-70
2023/01/29 01:27:04;;;;;;;3.40;2.23;;;;;;;-2.28;91.31;101828.63;4999631;28;20126;-70
2023/01/29 01:29:30;;;;;;;6.50;2.47;;;;;;;-2.32;91.47;101824.97;5002256;28;20523;-70
2023/01/29 01:31:56;;;;;;;6.47;2.27;;;;;;;-2.34;92.02;101829.13;5000056;28;20034;-70
2023/01/29 01:34:22;;;;;;;6.03;2.17;;;;;;;-2.38;91.52;101829.72;5001291;28;20037;-70
2023/01/29 01:36:48;;;;;;;4.73;2.10;;;;;;;-2.44;92.51;101830.22;5000474;28;20034;-70
2023/01/29 01:39:13;;;;;;;3.93;1.73;;;;;;;-2.45;92.72;101832.69;5003889;28;20038;-70
2023/01/29 01:41:38;;;;;;;4.07;1.90;;;;;;;-2.44;91.88;101829.31;5003166;28;20042;-70
2023/01/29 01:44:05;;;;;;;4.03;2.10;;;;;;;-2.45;91.90;101819.75;5000726;28;20515;-70
2023/01/29 01:46:35;;;;;;;6.20;2.30;;;;;;;-2.45;92.27;101812.00;5001063;28;20046;-70
2023/01/29 01:49:15;;;;;;;5.13;2.40;;;;;;;-2.47;92.13;101809.31;5002539;28;20041;-70
2023/01/29 01:51:45;;;;;;;5.77;2.10;;;;;;;-2.50;92.12;101795.28;4999362;28;20047;-70
2023/01/29 01:54:17;;;;;;;4.03;2.13;;;;;;;-2.52;92.67;101805.53;5000741;28;20041;-70
2023/01/29 01:56:46;;;;;;;4.28;2.25;;;;;;;-2.52;92.73;101809.81;5008824;28;20041;-70
2023/01/29 01:59:15;;;;;;;4.10;2.27;;;;;;;-2.56;92.57;101803.53;4998709;28;20105;-70
2023/01/29 02:01:43;;;;;;;6.80;2.90;;;;;;;-2.60;92.92;101795.47;5005558;28;20103;-69
2023/01/29 02:10:09;;;;;;;9.50;2.73;;;;;;;-2.57;92.88;101800.84;5002892;28;20124;-70
2023/01/29 02:12:36;;;;;;;4.00;2.63;;;;;;;-2.59;93.19;101805.94;5000502;28;20481;-70
2023/01/29 02:15:01;;;;;;;6.17;2.73;;;;;;;-2.58;93.01;101799.06;4998503;28;20035;-70
2023/01/29 02:17:27;;;;;;;4.33;2.90;;;;;;;-2.56;92.77;101802.66;5003954;28;20033;-70
2023/01/29 02:20:03;;;;;;;5.87;2.63;;;;;;;-2.56;93.07;101802.66;5003848;28;20120;-70
2023/01/29 02:22:57;;;;;;;5.77;2.80;;;;;;;-2.51;92.46;101801.28;5006341;28;20046;-70
2023/01/29 02:25:56;;;;;;;4.80;2.67;;;;;;;-2.54;92.84;101806.22;5006775;28;20166;-70
2023/01/29 02:28:42;;;;;;;4.17;2.33;;;;;;;-2.54;92.69;101812.28;5003507;28;20042;-70
2023/01/29 02:31:30;;;;;;;4.90;3.10;;;;;;;-2.54;92.95;101816.53;5011137;28;20045;-70
2023/01/29 02:33:59;;;;;;;4.07;2.50;;;;;;;-2.52;92.97;101810.69;5003296;28;20038;-70
2023/01/29 02:36:49;;;;;;;8.60;3.00;;;;;;;-2.53;92.67;101810.59;5005105;28;20085;-70
2023/01/29 02:39:47;;;;;;;6.93;2.67;;;;;;;-2.51;93.21;101816.78;5004382;28;20045;-71
2023/01/29 02:42:37;;;;;;;7.30;3.90;;;;;;;-2.49;93.01;101823.84;5008665;28;20552;-71
2023/01/29 02:45:15;;;;;;;6.27;2.73;;;;;;;-2.47;93.41;101816.16;5004300;28;20116;-70
2023/01/29 02:47:47;;;;;;;5.73;3.40;;;;;;;-2.49;93.38;101820.34;5006153;28;20033;-71
2023/01/29 02:50:25;;;;;;;8.25;3.65;;;;;;;-2.48;93.14;101809.22;5005741;28;20030;-70
2023/01/29 02:52:55;;;;;;;9.80;3.50;;;;;;;-2.45;92.96;101801.66;5013552;28;20042;-70
2023/01/29 02:55:39;;;;;;;5.83;3.57;;;;;;;-2.44;92.96;101804.38;5002821;28;20042;-70
2023/01/29 02:58:12;;;;;;;8.10;3.20;;;;;;;-2.44;93.50;101814.72;5006691;28;20064;-71
2023/01/29 03:00:43;;;;;;;4.90;2.90;;;;;;;-2.42;92.81;101812.22;5008283;28;20057;-71
2023/01/29 03:03:19;;;;;;;7.37;3.70;;;;;;;-2.39;93.08;101801.16;5003115;28;20226;-71
2023/01/29 03:06:05;;;;;;;4.83;2.83;;;;;;;-2.34;93.56;101802.38;5001862;28;20034;-69
2023/01/29 03:08:44;;;;;;;7.60;3.27;;;;;;;-2.31;92.68;101803.47;5003766;28;20038;-69
2023/01/29 03:11:14;;;;;;;6.63;3.13;;;;;;;-2.28;93.25;101790.75;5004237;28;20104;-69
2023/01/29 03:14:07;;;;;;;6.80;2.97;;;;;;;-2.26;92.65;101789.16;5001109;28;20112;-69
2023/01/29 03:16:39;;;;;;;5.75;3.13;;;;;;;-2.24;92.78;101799.59;4997684;28;20077;-70
2023/01/29 03:19:09;;;;;;;6.77;3.23;;;;;;;-2.21;92.82;101792.94;5014264;28;20040;-70
2023/01/29 03:21:59;;;;;;;9.07;3.07;;;;;;;-2.18;92.94;101786.19;5003953;28;20038;-69
2023/01/29 03:33:13;;;;;;;6.40;3.33;;;;;;;-2.20;93.51;101783.50;5009637;28;20493;-69
2023/01/29 03:35:47;;;;;;;6.87;3.93;;;;;;;-2.21;93.67;101787.75;5000208;28;20038;-70
2023/01/29 03:38:14;;;;;;;10.37;4.23;;;;;;;-2.23;93.63;101784.19;5007723;28;20488;-70
2023/01/29 03:40:49;;;;;;;6.27;3.83;;;;;;;-2.29;94.40;101783.78;5001951;28;20070;-69
2023/01/29 03:43:36;;;;;;;6.33;4.13;;;;;;;-2.34;94.41;101784.28;5001605;28;20030;-70
2023/01/29 03:46:31;;;;;;;6.30;4.07;;;;;;;-2.33;94.69;101776.63;5005667;28;20038;-70
2023/01/29 03:49:07;;;;;;;6.73;3.90;;;;;;;-2.33;94.75;101763.69;4983193;28;20053;-70
2023/01/29 03:51:49;;;;;;;7.43;4.27;;;;;;;-2.40;95.27;101769.25;5004179;28;20052;-69
2023/01/29 03:54:20;;;;;;;9.48;3.60;;;;;;;-2.37;95.78;101769.47;5005780;28;20034;-70
2023/01/29 03:56:58;;;;;;;7.37;3.93;;;;;;;-2.39;95.71;101771.03;5001173;28;20042;-70
2023/01/29 03:59:48;;;;;;;7.93;4.17;;;;;;;-2.37;95.27;101768.56;5006098;28;20030;-70
2023/01/29 04:02:41;;;;;;;8.03;4.20;;;;;;;-2.42;96.27;101774.31;5003902;28;20062;-70
2023/01/29 04:05:16;;;;;;;7.80;4.30;;;;;;;-2.38;96.10;101775.44;4999824;28;20170;-70
2023/01/29 04:08:05;;;;;;;;;;;;;;;-2.29;95.77;101777.72;5003889;28;20053;-70
2023/01/29 04:10:34;;;;;;;8.63;4.03;;;;;;;-2.24;95.48;101774.63;5007323;28;19981;-70
2023/01/29 04:13:09;;;;;;;9.20;4.03;;;;;;;-2.17;94.82;101762.09;5012512;28;20109;-70
2023/01/29 04:15:42;;;;;;;9.20;3.90;;;;;;;-2.13;94.68;101764.97;5007097;28;20041;-70
2023/01/29 04:18:08;;;;;;;;;;;;;;;-2.11;94.89;101760.81;5005529;28;20048;-70
2023/01/29 04:20:48;;;;;;;7.60;4.53;;;;;;;-2.17;94.31;101757.84;5002289;28;19921;-70
2023/01/29 04:23:25;;;;;;;8.87;4.77;;;;;;;-2.21;94.66;101748.97;5002155;28;20046;-70
2023/01/29 04:26:06;;;;;;;11.07;4.90;;;;;;;-2.26;95.49;101747.75;4999373;28;20031;-69
2023/01/29 04:29:05;;;;;;;9.13;4.33;;;;;;;-2.31;94.98;101736.22;5001213;28;20526;-70
2023/01/29 04:31:43;;;;;;;7.73;4.33;;;;;;;-2.31;94.60;101738.81;5004233;28;20034;-70
2023/01/29 04:34:27;;;;;;;8.27;4.50;;;;;;;-2.34;95.19;101743.78;5002971;28;20045;-69
2023/01/29 04:37:06;;;;;;;8.07;4.40;;;;;;;-2.36;95.52;101735.03;5008183;28;20381;-69
2023/01/29 04:39:47;;;;;;;7.60;4.00;;;;;;;-2.32;95.52;101737.03;5006497;28;20025;-69
2023/01/29 04:42:24;;;;;;;7.00;4.00;;;;;;;-2.26;95.82;101737.41;5001252;28;20069;-69
2023/01/29 04:45:02;;;;;;;10.73;4.90;;;;;;;-2.16;95.36;101723.41;5000091;28;20516;-70
2023/01/29 04:47:40;;;;;;;12.20;4.97;;;;;;;-2.10;95.39;101713.44;5004824;28;20077;-69
2023/01/29 04:50:32;;;;;;;8.07;4.80;;;;;;;-2.06;94.16;101710.25;5004579;28;20112;-69
2023/01/29 04:53:15;;;;;;;9.07;4.23;;;;;;;-2.00;94.65;101709.75;5003304;28;20096;-70
2023/01/29 04:55:55;;;;;;;10.98;5.22;;;;;;;-2.01;94.06;101698.50;5000980;28;20034;-70
2023/01/29 04:58:31;;;;;;;12.07;5.13;;;;;;;-1.93;94.14;101696.41;5004109;28;20492;-69
2023/01/29 05:00:57;;;;;;;9.10;4.63;;;;;;;-1.85;93.29;101683.97;5003384;28;20038;-70
2023/01/29 05:03:25;;;;;;;10.20;5.13;;;;;;;-1.85;93.30;101684.84;5001495;28;20046;-69
2023/01/29 05:05:54;;;;;;;10.07;5.37;;;;;;;-1.81;93.12;101681.66;5000859;28;20108;-70
2023/01/29 05:08:21;;;;;;;10.50;5.27;;;;;;;-1.75;92.89;101686.31;5002230;28;20045;-70
2023/01/29 05:10:49;;;;;;;8.77;4.80;;;;;;;-1.67;92.68;101691.97;5003532;28;20053;-70
2023/01/29 05:13:17;;;;;;;8.83;4.77;;;;;;;-1.58;92.05;101690.81;5003137;28;20044;-69
2023/01/29 05:15:52;;;;;;;8.97;4.80;;;;;;;-1.51;91.73;101684.34;5000093;28;20408;-70
2023/01/29 05:18:17;;;;;;;12.53;6.00;;;;;;;-1.45;91.21;101696.75;5008728;28;20042;-70
2023/01/29 05:20:43;;;;;;;9.67;5.60;;;;;;;-1.46;91.36;101690.69;5005820;28;20035;-70
2023/01/29 05:23:16;;;;;;;9.40;4.83;;;;;;;-1.33;90.94;101681.97;5002033;28;20072;-70
2023/01/29 05:25:41;;;;;;;10.33;5.10;;;;;;;-1.24;90.50;101677.31;5001239;28;20030;-70
2023/01/29 05:28:17;;;;;;;10.30;5.13;;;;;;;-1.20;90.57;101671.53;5000813;28;20045;-70
2023/01/29 05:30:45;;;;;;;10.17;4.93;;;;;;;-1.21;90.20;101669.72;5000627;28;20045;-69
2023/01/29 05:33:14;;;;;;;14.20;6.40;;;;;;;-1.14;89.39;101666.72;5001261;28;20038;-70
2023/01/29 05:35:39;;;;;;;10.17;5.47;;;;;;;-1.17;88.93;101663.06;5001486;28;20264;-70
2023/01/29 05:38:05;;;;;;;9.73;5.60;;;;;;;-1.19;89.09;101667.25;5000659;28;20122;-70
2023/01/29 05:40:30;;;;;;;9.70;5.80;;;;;;;-1.19;89.72;101662.06;5003785;28;20034;-69
2023/01/29 05:42:55;;;;;;;13.77;5.90;;;;;;;-1.09;89.57;101667.00;5001354;28;20030;-70
2023/01/29 05:45:21;;;;;;;13.27;5.80;;;;;;;-1.02;88.48;101676.91;5001282;28;20459;-70
2023/01/29 05:47:46;;;;;;;11.87;5.93;;;;;;;-1.01;87.67;101673.50;5001899;28;20038;-70
2023/01/29 05:50:12;;;;;;;15.17;5.63;;;;;;;-0.97;88.45;101667.72;5002951;28;20042;-70
2023/01/29 05:52:38;;;;;;;11.60;6.60;;;;;;;-0.95;87.91;101665.19;5001522;28;20088;-70
2023/01/29 05:55:04;;;;;;;10.17;5.50;;;;;;;-0.97;88.00;101667.72;5003801;28;20042;-70
2023/01/29 05:57:29;;;;;;;11.17;5.50;;;;;;;-1.04;88.01;101675.94;5004242;28;20049;-70
2023/01/29 05:59:55;;;;;;;11.10;5.43;;;;;;;-1.01;88.14;101680.41;5008360;28;20038;-70
2023/01/29 06:02:20;;;;;;;13.67;6.00;;;;;;;-1.03;88.07;101679.41;5005506;28;20038;-70
2023/01/29 06:04:45;;;;;;;10.47;5.67;;;;;;;-1.07;88.58;101688.72;5004257;28;20048;-70
2023/01/29 06:07:11;;;;;;;10.53;5.63;;;;;;;-1.02;88.04;101689.88;5004675;28;20034;-70
2023/01/29 06:09:36;;;;;;;10.03;5.67;;;;;;;-0.96;88.21;101698.00;5004188;28;20412;-70
2023/01/29 06:12:02;;;;;;;8.27;5.10;;;;;;;-0.99;87.69;101691.75;5006261;28;20065;-70
2023/01/29 06:14:27;;;;;;;10.00;5.47;;;;;;;-0.94;87.74;101698.09;5004038;28;20053;-70
2023/01/29 06:16:52;;;;;;;11.30;5.93;;;;;;;-0.96;87.52;101697.13;5004647;28;20466;-70
2023/01/29 06:19:19;;;;;;;9.80;5.43;;;;;;;-0.98;88.24;101701.31;5005245;28;20032;-70
2023/01/29 06:21:45;;;;;;;10.47;5.47;;;;;;;-0.95;87.34;101707.56;5012643;28;20104;-70
2023/01/29 06:24:10;;;;;;;9.33;5.13;;;;;;;-0.96;87.31;101710.97;5006115;28;20042;-70
2023/01/29 06:26:36;;;;;;;9.73;5.77;;;;;;;-0.92;88.49;101699.97;5005153;28;20481;-70
2023/01/29 06:29:01;;;;;;;10.90;5.83;;;;;;;-0.87;87.38;101715.78;5003190;28;20030;-70
2023/01/29 06:31:26;;;;;;;8.70;5.43;;;;;;;-0.84;87.18;101720.25;5006277;28;20552;-70
2023/01/29 06:33:51;;;;;;;11.30;6.33;;;;;;;-0.85;87.52;101709.00;5002158;28;20489;-70
2023/01/29 06:36:17;;;;;;;11.13;5.50;;;;;;;-0.82;87.37;101729.03;5005299;28;20497;-69
2023/01/29 06:38:42;;;;;;;11.73;5.80;;;;;;;-0.88;87.53;101722.66;5008507;28;20037;-70
2023/01/29 06:41:10;;;;;;;11.57;6.23;;;;;;;-0.89;88.08;101728.66;5005943;28;20109;-69
2023/01/29 06:43:36;;;;;;;9.30;5.23;;;;;;;-0.86;87.88;101737.41;5002356;28;20421;-69
2023/01/29 06:46:01;;;;;;;11.90;5.80;;;;;;;-0.79;87.72;101745.63;5005307;28;20044;-70
2023/01/29 06:48:26;;;;;;;9.70;5.20;;;;;;;-0.79;87.37;101752.53;5008259;28;20435;-70
2023/01/29 06:50:54;;;;;;;9.80;5.40;;;;;;;-0.80;86.91;101754.22;5003843;28;20488;-71
2023/01/29 06:53:19;;;;;;;11.50;5.33;;;;;;;-0.81;87.67;101761.91;5009588;28;20029;-70
2023/01/29 06:55:52;;;;;;;8.87;5.30;;;;;;;-0.80;87.32;101758.53;5007987;28;20569;-70
2023/01/29 06:58:17;;;;;;;8.13;3.80;;;;;;;-0.73;88.11;101761.56;5028437;23;20038;-73
2023/01/29 07:00:43;;;;;;;10.57;5.93;;;;;;;-0.69;87.83;101762.63;5007860;28;20034;-73
2023/01/29 07:03:09;;;;;;;7.03;3.67;;;;;;;-0.69;87.79;101767.81;5007819;28;20495;-73
2023/01/29 07:05:35;;;;;;;7.67;4.17;;;;;;;-0.62;88.56;101759.59;5004416;28;20042;-73
2023/01/29 07:08:01;;;;;;;9.80;4.40;;;;;;;-0.66;87.88;101762.81;5009901;28;20121;-73
2023/01/29 07:10:26;;;;;;;9.10;4.30;;;;;;;-0.63;88.68;101769.88;5005899;28;20026;-73
2023/01/29 07:12:52;;;;;;;8.77;4.03;;;;;;;-0.56;88.37;101774.63;5004816;28;20042;-73
2023/01/29 07:15:19;;;;;;;10.50;3.97;;;;;;;-0.53;88.56;101769.63;5010592;28;20085;-73
2023/01/29 07:17:57;;;;;;;9.23;5.30;;;;;;;-0.45;88.74;101752.78;5013132;28;20033;-73
2023/01/29 07:20:24;;;;;;;9.07;4.50;;;;;;;-0.51;88.41;101755.94;5010815;28;20432;-71
2023/01/29 07:22:49;;;;;;;8.77;4.33;;;;;;;-0.55;89.49;101766.03;5009441;28;20076;-72
2023/01/29 07:25:15;;;;;;;7.50;3.87;;;;;;;-0.53;90.43;101770.50;5011830;28;20034;-72
2023/01/29 07:27:40;;;;;;;9.67;4.73;;;;;;;-0.52;90.53;101764.53;5011165;28;20041;-72
2023/01/29 07:30:07;;;;;;;8.60;4.40;;;;;;;-0.43;90.39;101768.47;5011560;28;20671;-72
2023/01/29 07:32:33;;;;;;;9.07;4.40;;;;;;;-0.42;90.68;101783.19;5010627;28;20049;-73
2023/01/29 07:34:58;;;;;;;8.47;4.77;;;;;;;-0.43;90.49;101765.88;5010912;28;20165;-72
2023/01/29 07:37:23;;;;;;;8.73;4.60;;;;;;;-0.28;90.67;101761.56;5011003;28;20046;-73
2023/01/29 07:39:49;;;;;;;10.13;4.70;;;;;;;-0.26;89.82;101758.25;5009220;28;20029;-72
2023/01/29 07:42:14;;;;;;;8.97;3.90;;;;;;;-0.32;90.76;101759.59;5011433;28;20042;-73
2023/01/29 07:44:39;;;;;;;7.17;3.90;;;;;;;-0.37;90.69;101755.84;5009662;28;20041;-72
2023/01/29 07:47:04;;;;;;;8.60;4.63;;;;;;;-0.38;90.50;101756.66;5003280;28;20048;-74
2023/01/29 07:49:30;;;;;;;9.00;5.17;;;;;;;-0.41;91.10;101740.91;5010324;28;20033;-72
2023/01/29 07:51:55;;;;;;;11.73;5.73;;;;;;;-0.36;91.53;101742.06;5010762;28;20047;-72
2023/01/29 07:54:20;;;;;;;10.57;4.33;;;;;;;-0.36;91.96;101734.28;5011281;28;20034;-72
2023/01/29 07:56:46;;;;;;;8.73;4.30;;;;;;;-0.36;91.80;101732.59;5010538;28;20065;-72
2023/01/29 07:59:11;;;;;;;10.07;5.00;;;;;;;-0.53;91.92;101723.81;5010993;28;20029;-72
2023/01/29 08:01:37;;;;;;;9.50;4.30;;;;;;;-0.37;92.03;101711.75;5004451;28;20034;-71
2023/01/29 08:04:02;;;;;;;9.10;4.60;;;;;;;-0.30;91.01;101701.78;5003300;28;20088;-72
2023/01/29 08:06:27;;;;;;;8.73;4.50;;;;;;;-0.38;90.81;101708.25;5005856;28;20042;-72
2023/01/29 08:08:54;;;;;;;11.17;5.47;;;;;;;-0.36;91.26;101691.09;5007508;28;20045;-72
2023/01/29 08:11:19;;;;;;;15.07;5.73;;;;;;;-0.32;90.80;101692.13;5003979;28;20041;-71
2023/01/29 08:13:45;;;;;;;8.40;3.90;;;;;;;-0.29;91.17;101705.28;5004555;28;20104;-72
2023/01/29 08:16:10;;;;;;;10.40;4.43;;;;;;;-0.29;90.79;101708.78;5002950;28;20085;-72
2023/01/29 08:18:37;;;;;;;15.37;5.60;;;;;;;-0.31;90.01;101712.09;5009592;28;20033;-72
2023/01/29 08:21:02;;;;;;;7.23;3.67;;;;;;;-0.28;89.83;101700.19;5006179;28;20081;-73
2023/01/29 08:23:28;;;;;;;2.73;2.63;;;;;;;-0.15;89.64;101693.09;5005518;28;20507;-72
2023/01/29 08:25:54;;;;;;;0.30;0.30;;;;;;;-0.04;88.49;101702.38;4999186;28;20034;-71
2023/01/29 08:28:19;;;;;;;0.33;0.33;;;;;;;-0.13;88.74;101705.34;5009822;28;20508;-72
2023/01/29 08:30:44;;;;;;;0.30;0.30;;;;;;;-0.06;87.88;101711.75;5010118;28;20030;-72
2023/01/29 08:33:10;;;;;;;0.30;0.30;;;;;;;-0.09;88.07;101716.78;5004851;28;20117;-72
2023/01/29 08:35:36;;;;;;;0.33;0.33;;;;;;;-0.09;87.43;101709.88;5002290;28;20115;-72
2023/01/29 08:38:02;;;;;;;0.40;0.40;;;;;;;-0.10;87.40;101710.72;5001743;28;20177;-72
2023/01/29 08:40:30;;;;;;;0.40;0.40;;;;;;;-0.21;87.28;101701.41;5003347;28;20026;-72
2023/01/29 08:43:04;;;;;;;0.30;0.30;;;;;;;-0.02;87.69;101714.63;5004086;28;20057;-72
2023/01/29 08:45:31;;;;;;;0.30;0.30;;;;;;;0.01;87.59;101710.41;5001737;28;20729;-72
2023/01/29 08:47:57;;;;;;;0.40;0.40;;;;;;;0.09;87.79;101696.16;5005077;28;20034;-73
2023/01/29 08:50:22;;;;;;;0.30;0.30;;;;;;;0.13;86.83;101692.91;5003473;28;20037;-73
2023/01/29 08:52:47;;;;;;;0.30;0.30;;;;;;;0.18;86.47;101692.38;5005043;28;20081;-73
2023/01/29 08:55:13;;;;;;;0.40;0.40;;;;;;;0.13;85.89;101698.09;5002201;28;20096;-73
2023/01/29 08:57:38;;;;;;;0.30;0.30;;;;;;;0.11;85.74;101689.34;5000467;28;20085;-72
2023/01/29 09:00:05;;;;;;;0.30;0.30;;;;;;;0.11;85.82;101700.63;5002228;28;20026;-73
2023/01/29 09:02:31;;;;;;;0.30;0.30;;;;;;;0.07;87.11;101705.56;5003504;28;20133;-72
2023/01/29 09:04:56;;;;;;;0.30;0.30;;;;;;;0.24;86.51;101690.88;5002178;28;20121;-72
2023/01/29 09:07:21;;;;;;;0.30;0.30;;;;;;;0.34;85.34;101686.28;5003377;28;20501;-73
2023/01/29 09:09:47;;;;;;;0.30;0.30;;;;;;;0.32;85.75;101679.22;5002811;28;20034;-72
2023/01/29 09:12:12;;;;;;;0.37;0.37;;;;;;;0.26;85.23;101682.38;5006655;28;20500;-73
2023/01/29 09:14:37;;;;;;;0.30;0.30;;;;;;;0.35;85.75;101690.66;5000140;28;20069;-73
2023/01/29 09:17:03;;;;;;;0.33;0.33;;;;;;;0.34;85.08;101699.28;5003516;28;20069;-72
2023/01/29 09:19:28;;;;;;;0.40;0.40;;;;;;;0.37;85.62;101693.34;4999733;28;20035;-71
2023/01/29 09:21:54;;;;;;;0.30;0.30;;;;;;;0.60;85.20;101687.69;5006837;28;20065;-71
2023/01/29 09:24:19;;;;;;;0.33;0.33;;;;;;;0.62;83.83;101686.03;5001998;28;20064;-70
2023/01/29 09:26:44;;;;;;;0.40;0.40;;;;;;;0.69;83.53;101676.88;5007724;28;20069;-71
2023/01/29 09:29:10;;;;;;;0.30;0.30;;;;;;;0.69;83.13;101674.28;5008308;28;20058;-70
2023/01/29 09:31:35;;;;;;;0.30;0.30;;;;;;;0.59;83.65;101672.88;5005764;28;20465;-70
2023/01/29 09:34:00;;;;;;;0.30;0.30;;;;;;;0.64;84.00;101665.34;5006952;28;20405;-71
2023/01/29 09:36:26;;;;;;;0.40;0.40;;;;;;;0.76;84.26;101663.38;5006553;28;20046;-70
2023/01/29 09:38:51;;;;;;;0.33;0.33;;;;;;;0.79;83.95;101657.47;5003383;28;20296;-70
2023/01/29 09:41:51;;;;;;;0.30;0.30;;;;;;;0.81;82.76;101655.81;5007023;28;20604;-71
2023/01/29 09:44:32;;;;;;;0.40;0.40;;;;;;;0.73;83.61;101673.59;5009754;28;20048;-71
2023/01/29 09:47:03;;;;;;;0.38;0.38;;;;;;;0.72;84.57;101671.81;5005886;28;20413;-70
2023/01/29 09:49:34;;;;;;;0.40;0.40;;;;;;;0.76;84.47;101678.06;5002859;28;20563;-70
2023/01/29 09:52:19;;;;;;;0.38;0.38;;;;;;;0.64;84.51;101678.34;5009591;28;20038;-70
2023/01/29 09:55:09;;;;;;;0.30;0.30;;;;;;;0.65;84.66;101680.09;5006808;28;20026;-71
2023/01/29 09:57:44;;;;;;;0.30;0.30;;;;;;;0.62;84.58;101679.94;5005558;28;20041;-71
2023/01/29 10:00:15;;;;;;;0.30;0.30;;;;;;;0.38;85.78;101675.25;5003052;28;20030;-71
2023/01/29 10:02:53;;;;;;;0.30;0.30;;;;;;;0.35;87.03;101672.50;5012274;28;20045;-71
2023/01/29 10:05:30;;;;;;;0.40;0.40;;;;;;;0.29;88.38;101671.25;5013447;28;20124;-71
2023/01/29 10:08:44;;;;;;;0.40;0.40;;;;;;;0.38;89.80;101675.25;5013677;28;20061;-73
2023/01/29 10:11:24;;;;;;;0.30;0.30;;;;;;;0.38;91.41;101661.38;5010781;28;20030;-73
2023/01/29 10:14:15;;;;;;;0.30;0.30;;;;;;;0.39;93.29;101664.06;5009171;28;20091;-72
2023/01/29 10:17:19;;;;;;;0.40;0.40;;;;;;;0.40;93.75;101654.56;5010972;28;20061;-71
2023/01/29 10:19:56;;;;;;;0.30;0.30;;;;;;;0.40;94.56;101660.63;5005925;28;20049;-72
2023/01/29 10:22:44;;;;;;;0.40;0.40;;;;;;;0.41;93.38;101649.44;5008111;28;20030;-72
2023/01/29 10:25:13;;;;;;;0.40;0.40;;;;;;;0.20;94.55;101648.28;5009775;28;20034;-72
2023/01/29 10:27:49;;;;;;;0.40;0.40;;;;;;;0.36;95.37;101640.50;5005174;28;20044;-72
2023/01/29 10:30:41;;;;;;;0.40;0.40;;;;;;;0.40;95.19;101641.56;5002715;28;20481;-72
2023/01/29 10:33:15;;;;;;;0.40;0.40;;;;;;;0.40;95.08;101638.97;5010892;28;20443;-72
2023/01/29 10:35:44;;;;;;;0.40;0.40;;;;;;;0.31;95.61;101641.97;5004171;28;20299;-70
2023/01/29 10:38:42;;;;;;;0.40;0.40;;;;;;;0.36;95.81;101635.31;5004867;28;20070;-72
2023/01/29 10:41:10;;;;;;;0.30;0.30;;;;;;;0.31;95.91;101622.91;5008077;28;20022;-71
2023/01/29 10:43:57;;;;;;;0.30;0.30;;;;;;;0.26;96.25;101621.75;5005929;28;20040;-72
2023/01/29 10:46:55;;;;;;;0.40;0.40;;;;;;;0.32;95.50;101611.72;5005694;28;20029;-72
2023/01/29 10:49:39;;;;;;;0.40;0.40;;;;;;;0.20;96.17;101610.22;5011037;28;20389;-71
2023/01/29 10:52:19;;;;;;;0.40;0.40;;;;;;;0.26;97.21;101604.47;5006336;28;20092;-72
2023/01/29 10:54:44;;;;;;;0.40;0.40;;;;;;;0.35;96.78;101594.59;5002911;28;20034;-73
2023/01/29 10:57:46;;;;;;;0.40;0.40;;;;;;;0.36;96.55;101585.06;5004329;28;20172;-72
2023/01/29 11:00:21;;;;;;;0.40;0.40;;;;;;;0.41;95.63;101589.69;5003697;28;20118;-72
2023/01/29 11:02:49;;;;;;;0.30;0.30;;;;;;;0.40;95.37;101579.25;5006347;28;20497;-73
2023/01/29 11:05:31;;;;;;;0.30;0.30;;;;;;;0.47;94.63;101576.13;5005208;28;20038;-72
2023/01/29 11:08:12;;;;;;;0.40;0.40;;;;;;;0.60;94.10;101577.66;5003909;28;20034;-72
2023/01/29 11:10:46;;;;;;;0.43;0.43;;;;;;;0.59;93.04;101570.69;5003983;28;20550;-72
2023/01/29 11:13:14;;;;;;;0.35;0.35;;;;;;;0.47;93.39;101564.84;5010412;28;20122;-71
2023/01/29 11:15:39;;;;;;;0.40;0.40;;;;;;;0.42;92.92;101555.13;5001298;28;20121;-73
2023/01/29 11:18:12;;;;;;;0.40;0.40;;;;;;;0.53;92.30;101560.88;5009020;28;20125;-72
2023/01/29 11:20:40;;;;;;;0.40;0.40;;;;;;;0.63;92.43;101559.66;5010970;28;20026;-72
2023/01/29 11:23:24;;;;;;;0.40;0.40;;;;;;;0.63;92.58;101546.66;5009993;28;20085;-72
2023/01/29 11:25:54;;;;;;;0.40;0.40;;;;;;;0.77;91.30;101556.00;5002636;28;20511;-72
2023/01/29 11:28:37;;;;;;;0.50;0.50;;;;;;;0.77;91.14;101550.81;5004462;28;20041;-72
2023/01/29 11:31:02;;;;;;;;;;;;;;;0.92;90.72;101550.69;5006947;28;20072;-73
2023/01/29 11:33:29;;;;;;;0.40;0.40;;;;;;;0.82;88.05;101564.06;5010973;28;19925;-71
2023/01/29 11:35:56;;;;;;;0.40;0.40;;;;;;;0.90;89.53;101574.84;5002464;28;20038;-72
2023/01/29 11:38:26;;;;;;;0.50;0.50;;;;;;;1.08;87.88;101562.75;5000409;28;20029;-72
2023/01/29 11:41:03;;;;;;;0.50;0.50;;;;;;;1.30;87.76;101544.72;5004443;28;20092;-72
2023/01/29 11:43:30;;;;;;;0.50;0.50;;;;;;;1.48;86.15;101536.91;5005194;28;20092;-72
2023/01/29 11:46:10;;;;;;;0.60;0.60;;;;;;;1.58;85.25;101532.16;5003013;28;20038;-72
2023/01/29 11:48:42;;;;;;;0.60;0.60;;;;;;;1.58;84.02;101520.03;5006432;28;20045;-72
2023/01/29 11:51:11;;;;;;;0.50;0.50;;;;;;;1.53;84.74;101517.19;5005905;28;20500;-72
2023/01/29 11:53:40;;;;;;;0.50;0.50;;;;;;;1.61;84.38;101508.84;5007470;28;20045;-72
2023/01/29 11:56:20;;;;;;;0.60;0.60;;;;;;;1.58;84.02;101499.19;5002384;28;20050;-72
2023/01/29 11:58:47;;;;;;;0.60;0.60;;;;;;;1.44;84.16;101502.88;5005376;28;20049;-72
2023/01/29 12:01:16;;;;;;;0.50;0.50;;;;;;;1.25;85.54;101502.00;5007456;28;20025;-72
2023/01/29 12:03:47;;;;;;;0.43;0.43;;;;;;;1.38;85.62;101492.19;5004603;28;20025;-72
2023/01/29 12:06:24;;;;;;;0.50;0.50;;;;;;;1.40;85.60;101491.44;5000755;28;20041;-72
2023/01/29 12:08:58;;;;;;;0.43;0.43;;;;;;;1.58;85.40;101499.19;5001794;28;20053;-72